createdAt,value
2023-02-26T00:07:53.401Z,97371.52
2023-02-26T00:17:58.937Z,97385.09
2023-02-26T00:28:05.527Z,97399.69
2023-02-26T00:38:12.478Z,97418.95
2023-02-26T00:48:35.406Z,97432.60
2023-02-26T00:58:42.870Z,97440.86
2023-02-26T01:08:51.963Z,97458.19
2023-02-26T01:18:57.454Z,97466.17
2023-02-26T01:29:03.782Z,97483.39
2023-02-26T01:39:13.455Z,97495.17
2023-02-26T01:49:22.782Z,97504.44
2023-02-26T01:59:29.832Z,97503.76
2023-02-26T02:09:37.898Z,97515.41
2023-02-26T02:20:16.000Z,97529.13
2023-02-26T02:30:36.680Z,97543.48
2023-02-26T02:40:44.858Z,97561.80
2023-02-26T02:50:58.098Z,97577.21
2023-02-26T03:01:10.677Z,97585.70
2023-02-26T03:11:17.980Z,97596.54
2023-02-26T03:21:30.933Z,97616.67
2023-02-26T03:31:44.799Z,97628.52
2023-02-26T03:41:57.878Z,97637.70
2023-02-26T03:52:06.717Z,97643.89
2023-02-26T04:02:17.632Z,97647.49
2023-02-26T04:12:22.917Z,97656.35
2023-02-26T04:22:30.438Z,97665.39
2023-02-26T04:32:36.554Z,97677.64
2023-02-26T04:42:44.494Z,97690.82
2023-02-26T04:52:53.308Z,97703.27
2023-02-26T05:03:00.696Z,97710.71
2023-02-26T05:13:08.171Z,97718.85
2023-02-26T05:23:15.524Z,97737.38
2023-02-26T05:33:22.660Z,97751.42
2023-02-26T05:43:31.104Z,97770.02
2023-02-26T05:53:38.173Z,97795.50
2023-02-26T06:03:45.249Z,97818.58
2023-02-26T06:13:52.708Z,97837.27
2023-02-26T06:24:00.202Z,97854.77
2023-02-26T06:34:07.381Z,97879.27
2023-02-26T06:44:13.715Z,97891.48
2023-02-26T06:54:19.509Z,97899.63
2023-02-26T07:04:26.807Z,97923.79
2023-02-26T07:14:34.403Z,97942.41
2023-02-26T07:24:41.453Z,97948.27
2023-02-26T07:34:48.424Z,97969.90
2023-02-26T07:44:55.392Z,97986.66
2023-02-26T07:55:02.500Z,98004.39
2023-02-26T08:05:10.347Z,98021.69
2023-02-26T08:15:17.366Z,98038.41
2023-02-26T08:25:23.558Z,98047.73
2023-02-26T08:35:31.150Z,98064.58
2023-02-26T08:45:38.285Z,98073.14
2023-02-26T08:55:48.724Z,98084.64
2023-02-26T09:05:56.035Z,98100.12
2023-02-26T09:16:03.186Z,98114.84
2023-02-26T09:26:10.677Z,98124.80
2023-02-26T09:36:17.989Z,98133.42
2023-02-26T09:46:32.039Z,98157.75
2023-02-26T09:56:39.812Z,98174.03
2023-02-26T10:06:46.004Z,98182.38
2023-02-26T10:16:51.326Z,98194.75
2023-02-26T10:27:05.527Z,98212.20
2023-02-26T10:37:12.763Z,98224.94
2023-02-26T10:47:18.520Z,98231.55
2023-02-26T10:57:30.211Z,98238.27
2023-02-26T11:07:40.075Z,98245.40
2023-02-26T11:17:48.696Z,98252.42
2023-02-26T11:27:55.126Z,98260.08
2023-02-26T11:38:04.088Z,98277.94
2023-02-26T11:48:20.875Z,98303.02
2023-02-26T11:58:35.819Z,98327.95
2023-02-26T12:08:43.237Z,98348.52
2023-02-26T12:29:28.990Z,98370.39
2023-02-26T12:39:37.958Z,98377.72
2023-02-26T12:50:07.788Z,98392.55
2023-02-26T13:00:20.404Z,98407.45
2023-02-26T13:10:28.439Z,98413.34
2023-02-26T13:20:38.895Z,98422.27
2023-02-26T13:30:51.280Z,98423.66
2023-02-26T13:40:58.597Z,98431.48
2023-02-26T13:51:04.019Z,98448.62
2023-02-26T14:01:10.103Z,98462.98
2023-02-26T14:11:45.953Z,98467.00
2023-02-26T14:21:51.939Z,98478.15
2023-02-26T14:32:07.041Z,98500.23
2023-02-26T14:42:14.697Z,98516.55
2023-02-26T14:52:46.008Z,98520.80
2023-02-26T15:02:56.853Z,98530.20
2023-02-26T15:13:07.893Z,98536.84
2023-02-26T15:23:17.393Z,98552.10
2023-02-26T15:33:27.097Z,98564.31
2023-02-26T15:43:32.945Z,98574.83
2023-02-26T15:53:42.827Z,98582.80
2023-02-26T16:03:52.456Z,98590.70
2023-02-26T16:13:59.889Z,98601.05
2023-02-26T16:24:08.634Z,98621.17
2023-02-26T16:34:24.172Z,98644.77
2023-02-26T16:44:38.248Z,98658.48
2023-02-26T16:54:50.324Z,98676.66
2023-02-26T17:05:02.077Z,98690.59
2023-02-26T17:15:19.305Z,98703.70
2023-02-26T17:25:29.481Z,98712.63
2023-02-26T17:35:35.393Z,98726.01
2023-02-26T17:45:44.075Z,98733.44
2023-02-26T17:55:55.040Z,98747.80
2023-02-26T18:06:02.572Z,98756.36
2023-02-26T18:16:14.808Z,98750.59
2023-02-26T18:26:24.064Z,98756.59
2023-02-26T18:36:34.660Z,98762.48
2023-02-26T18:46:42.985Z,98771.94
2023-02-26T18:56:50.258Z,98781.53
2023-02-26T19:06:58.314Z,98804.20
2023-02-26T19:17:05.898Z,98817.10
2023-02-26T19:27:15.641Z,98828.33
2023-02-26T19:37:23.384Z,98849.36
2023-02-26T19:47:30.613Z,98855.34
2023-02-26T19:57:37.190Z,98868.30
2023-02-26T20:07:45.878Z,98885.67
2023-02-26T20:17:53.542Z,98896.08
2023-02-26T20:28:01.246Z,98905.27
2023-02-26T20:38:08.473Z,98915.48
2023-02-26T20:48:15.959Z,98918.13
2023-02-26T20:58:23.132Z,98930.16
2023-02-26T21:18:33.737Z,98942.25
2023-02-26T21:28:41.200Z,98950.45
2023-02-26T21:38:48.419Z,98967.37
2023-02-26T21:48:55.677Z,98984.81
2023-02-26T21:59:03.362Z,98984.09
2023-02-26T22:09:11.501Z,98987.44
2023-02-26T22:19:18.652Z,98991.48
2023-02-26T22:29:26.256Z,99003.13
2023-02-26T22:39:33.487Z,99007.12
2023-02-26T22:49:40.857Z,99014.84
2023-02-26T22:59:48.100Z,99023.42
2023-02-26T23:09:55.428Z,99030.04
2023-02-26T23:20:01.630Z,99037.81
2023-02-26T23:30:10.735Z,99044.02
2023-02-26T23:40:18.119Z,99054.18
2023-02-26T23:50:24.392Z,99061.73
